Terminal Aerodrome Forecast
Issued by NWS Blacksburg, VA

Current Version | Previous Version | Graphics & Text | Print | Product List | Glossary On
Versions: 1 2 3 4 5 6 7 8 9 10 11 12 13 14 15 16 17 18 19 20 21 22 23 24 25 26 27
000
FTUS41 KRNK 271730
TAFBLF
TAF
KBLF 271730Z 2718/2818 26008KT P6SM BKN035
     FM272200 24007KT P6SM SCT050 BKN250
     FM280000 25003KT P6SM BKN080
     FM281300 26004KT P6SM SCT035 BKN060
     FM281600 31005KT P6SM VCSH BKN035=

USA.gov is the U.S. government's official web portal to all federal, state and local government web resources and services.